createdAt,value
2023-01-13T00:01:06.737Z,13.48
2023-01-13T00:03:08.330Z,13.54
2023-01-13T00:05:10.373Z,13.53
2023-01-13T00:07:12.063Z,13.49
2023-01-13T00:09:13.727Z,13.58
2023-01-13T00:11:18.989Z,13.58
2023-01-13T00:13:22.620Z,13.55
2023-01-13T00:15:24.296Z,13.50
2023-01-13T00:17:25.962Z,13.50
2023-01-13T00:19:27.862Z,13.52
2023-01-13T00:21:29.611Z,13.51
2023-01-13T00:23:32.956Z,13.38
2023-01-13T00:25:34.658Z,13.48
2023-01-13T00:27:36.467Z,13.51
2023-01-13T00:29:39.648Z,13.56
2023-01-13T00:31:41.249Z,13.48
2023-01-13T00:33:43.408Z,13.54
2023-01-13T00:35:45.145Z,13.64
2023-01-13T00:37:46.817Z,13.55
2023-01-13T00:39:48.613Z,13.54
2023-01-13T00:41:50.401Z,13.64
2023-01-13T00:43:52.148Z,13.58
2023-01-13T00:45:55.610Z,13.65
2023-01-13T00:47:57.198Z,13.63
2023-01-13T00:49:58.849Z,13.73
2023-01-13T00:52:00.463Z,13.72
2023-01-13T00:54:02.174Z,13.68
2023-01-13T00:56:05.948Z,13.69
2023-01-13T00:58:07.533Z,13.70
2023-01-13T01:00:10.882Z,13.73
2023-01-13T01:02:14.286Z,13.57
2023-01-13T01:04:17.576Z,13.57
2023-01-13T01:06:21.349Z,13.52
2023-01-13T01:08:23.514Z,13.46
2023-01-13T01:10:25.454Z,13.52
2023-01-13T01:12:27.174Z,13.48
2023-01-13T01:14:29.108Z,13.53
2023-01-13T01:16:32.960Z,13.57
2023-01-13T01:18:37.099Z,13.49
2023-01-13T01:20:38.748Z,13.48
2023-01-13T01:22:40.389Z,13.37
2023-01-13T01:24:42.007Z,13.49
2023-01-13T01:26:43.638Z,13.46
2023-01-13T01:28:48.531Z,13.49
2023-01-13T01:30:52.817Z,13.45
2023-01-13T01:32:54.487Z,13.51
2023-01-13T01:35:00.287Z,13.48
2023-01-13T01:37:01.921Z,13.45
2023-01-13T01:39:04.772Z,13.46
2023-01-13T01:41:07.156Z,13.51
2023-01-13T01:43:14.464Z,13.42
2023-01-13T01:45:19.525Z,13.38
2023-01-13T01:47:22.642Z,13.40
2023-01-13T01:49:28.925Z,13.39
2023-01-13T01:51:35.584Z,13.47
2023-01-13T01:53:37.908Z,13.36
2023-01-13T01:55:40.024Z,13.45
2023-01-13T01:57:48.168Z,13.41
2023-01-13T01:59:51.016Z,13.40
2023-01-13T02:01:52.845Z,13.39
2023-01-13T02:04:01.397Z,13.48
2023-01-13T02:06:03.422Z,13.36
2023-01-13T02:08:08.849Z,13.35
2023-01-13T02:10:12.959Z,13.33
2023-01-13T02:12:15.636Z,13.37
2023-01-13T02:14:18.068Z,13.45
2023-01-13T02:16:23.371Z,13.48
2023-01-13T02:18:36.333Z,13.56
2023-01-13T02:20:55.243Z,13.53
2023-01-13T02:23:30.613Z,13.55
2023-01-13T02:26:00.712Z,13.54
2023-01-13T02:28:30.451Z,13.55
2023-01-13T02:30:40.672Z,13.53
2023-01-13T02:32:56.375Z,13.54
2023-01-13T02:35:05.276Z,13.57
2023-01-13T02:37:14.253Z,13.48
2023-01-13T02:39:23.123Z,13.32
2023-01-13T02:41:31.515Z,13.36
2023-01-13T02:43:38.453Z,13.36
2023-01-13T02:45:51.104Z,13.32
2023-01-13T02:47:53.912Z,13.30
2023-01-13T02:50:00.288Z,13.33
2023-01-13T02:52:09.085Z,13.34
2023-01-13T02:54:15.562Z,13.30
2023-01-13T02:56:17.957Z,13.32
2023-01-13T02:58:24.105Z,13.29
2023-01-13T03:00:26.911Z,13.25
2023-01-13T03:02:29.929Z,13.15
2023-01-13T03:04:54.184Z,13.14
2023-01-13T03:07:04.131Z,13.25
2023-01-13T03:09:12.081Z,13.30
2023-01-13T03:11:16.738Z,13.18
2023-01-13T03:13:33.402Z,13.23
2023-01-13T03:15:43.626Z,13.28
2023-01-13T03:17:55.780Z,13.25
2023-01-13T03:20:04.868Z,13.32
2023-01-13T03:22:18.157Z,13.33
2023-01-13T03:24:25.781Z,13.26
2023-01-13T03:26:33.990Z,13.26
2023-01-13T03:28:40.366Z,13.21
2023-01-13T03:30:48.531Z,13.26
2023-01-13T03:32:58.781Z,13.21
2023-01-13T03:35:08.020Z,13.09
2023-01-13T03:37:10.911Z,13.18
2023-01-13T03:39:19.920Z,13.23
2023-01-13T03:41:25.899Z,13.10
2023-01-13T03:43:33.589Z,13.20
2023-01-13T03:45:37.142Z,13.12
2023-01-13T03:47:42.688Z,13.15
2023-01-13T03:49:52.746Z,13.22
2023-01-13T03:51:58.703Z,13.22
2023-01-13T03:54:04.972Z,13.21
2023-01-13T03:56:15.809Z,13.19
2023-01-13T03:58:22.457Z,13.13
2023-01-13T04:00:31.735Z,13.16
2023-01-13T04:02:44.048Z,13.22
2023-01-13T04:04:51.999Z,13.24
2023-01-13T04:06:58.210Z,13.30
2023-01-13T04:09:06.677Z,13.30
2023-01-13T04:11:14.614Z,13.34
2023-01-13T04:13:20.559Z,13.39
2023-01-13T04:15:25.264Z,13.35
2023-01-13T04:17:26.908Z,13.33
2023-01-13T04:19:28.596Z,13.35
2023-01-13T04:21:31.871Z,13.39
2023-01-13T04:23:34.160Z,13.36
2023-01-13T04:25:36.268Z,13.42
2023-01-13T04:27:38.100Z,13.40
2023-01-13T04:29:39.780Z,13.34
2023-01-13T04:31:41.574Z,13.36
2023-01-13T04:33:43.435Z,13.39
2023-01-13T04:35:46.346Z,13.37
2023-01-13T04:37:49.542Z,13.39
2023-01-13T04:39:51.270Z,13.44
2023-01-13T04:41:52.929Z,13.41
2023-01-13T04:43:54.645Z,13.42
2023-01-13T04:45:56.316Z,13.48
2023-01-13T04:47:58.612Z,13.59
2023-01-13T04:50:01.763Z,13.54
2023-01-13T04:52:04.253Z,13.52
2023-01-13T04:54:10.417Z,13.57
2023-01-13T04:56:12.086Z,13.52
2023-01-13T04:58:15.334Z,13.49
2023-01-13T05:00:20.142Z,13.48
2023-01-13T05:02:22.077Z,13.51
2023-01-13T05:04:24.142Z,13.52
2023-01-13T05:06:28.006Z,13.47
2023-01-13T05:08:29.666Z,13.51
2023-01-13T05:10:32.734Z,13.46
2023-01-13T05:12:34.549Z,13.45
2023-01-13T05:14:36.185Z,13.48
2023-01-13T05:16:37.913Z,13.51
2023-01-13T05:18:39.850Z,13.42
2023-01-13T05:20:43.061Z,13.44
2023-01-13T05:22:44.699Z,13.43
2023-01-13T05:24:47.069Z,13.53
2023-01-13T05:26:50.196Z,13.54
2023-01-13T05:28:52.021Z,13.51
2023-01-13T05:30:53.772Z,13.50
2023-01-13T05:32:55.724Z,13.51
2023-01-13T05:34:57.781Z,13.45
2023-01-13T05:36:59.443Z,13.53
2023-01-13T05:39:01.088Z,13.48
2023-01-13T05:41:02.947Z,13.47
2023-01-13T05:43:09.076Z,13.48
2023-01-13T05:45:11.416Z,13.44
2023-01-13T05:47:13.040Z,13.57
2023-01-13T05:49:14.600Z,13.55
2023-01-13T05:51:16.192Z,13.56
2023-01-13T05:53:18.440Z,13.56
2023-01-13T05:55:20.123Z,13.55
2023-01-13T05:57:21.914Z,13.53
2023-01-13T05:59:24.891Z,13.46
2023-01-13T06:01:26.578Z,13.52
2023-01-13T06:03:28.388Z,13.50
2023-01-13T06:05:30.744Z,13.50
2023-01-13T06:07:32.408Z,13.55
2023-01-13T06:09:34.052Z,13.53
2023-01-13T06:11:35.670Z,13.54
2023-01-13T06:13:37.339Z,13.44
2023-01-13T06:15:40.318Z,13.51
2023-01-13T06:17:41.960Z,13.54
2023-01-13T06:19:43.623Z,13.56
2023-01-13T06:21:45.514Z,13.60
2023-01-13T06:23:47.365Z,13.50
2023-01-13T06:25:56.593Z,13.46
2023-01-13T06:27:59.942Z,13.45
2023-01-13T06:30:01.611Z,13.36
2023-01-13T06:32:09.584Z,13.47
2023-01-13T06:34:14.861Z,13.46
2023-01-13T06:36:19.507Z,13.28
2023-01-13T06:38:25.353Z,13.20
2023-01-13T06:40:30.340Z,13.16
2023-01-13T06:42:35.428Z,13.33
2023-01-13T06:44:37.581Z,13.22
2023-01-13T06:46:39.548Z,13.29
2023-01-13T06:48:42.694Z,13.22
2023-01-13T06:50:44.883Z,13.29
2023-01-13T06:52:46.799Z,13.27
2023-01-13T06:54:48.583Z,13.24
2023-01-13T06:56:51.696Z,13.26
2023-01-13T06:58:53.393Z,13.27
2023-01-13T07:00:59.265Z,13.33
2023-01-13T07:03:11.967Z,13.42
2023-01-13T07:05:15.817Z,13.41
2023-01-13T07:07:17.474Z,13.40
2023-01-13T07:09:19.226Z,13.39
2023-01-13T07:11:22.212Z,13.43
2023-01-13T07:13:24.061Z,13.45
2023-01-13T07:15:29.039Z,13.51
2023-01-13T07:17:30.643Z,13.52
2023-01-13T07:19:32.575Z,13.49
2023-01-13T07:21:35.549Z,13.53
2023-01-13T07:23:39.078Z,13.47
2023-01-13T07:25:40.706Z,13.47
2023-01-13T07:27:42.404Z,13.45
2023-01-13T07:29:46.788Z,13.45
2023-01-13T07:31:50.144Z,13.46
2023-01-13T07:33:52.264Z,13.51
2023-01-13T07:35:57.059Z,13.49
2023-01-13T07:38:00.176Z,13.50
2023-01-13T07:40:02.186Z,13.48
2023-01-13T07:42:04.040Z,13.55
2023-01-13T07:44:06.355Z,13.53
2023-01-13T07:46:08.101Z,13.35
2023-01-13T07:48:09.874Z,13.39
2023-01-13T07:50:12.000Z,13.38
2023-01-13T07:52:13.838Z,13.33
2023-01-13T07:54:21.146Z,13.24
2023-01-13T07:56:27.407Z,13.15
2023-01-13T07:58:29.465Z,13.29
2023-01-13T08:00:31.082Z,13.35
2023-01-13T08:02:33.209Z,13.36
2023-01-13T08:04:35.012Z,13.37
2023-01-13T08:06:39.009Z,13.30
2023-01-13T08:08:40.777Z,13.29
2023-01-13T08:10:44.276Z,13.39
2023-01-13T08:12:53.065Z,13.38
2023-01-13T08:14:59.044Z,13.36
2023-01-13T08:17:00.966Z,13.24
2023-01-13T08:19:02.600Z,13.31
2023-01-13T08:21:06.474Z,13.26
2023-01-13T08:23:08.145Z,13.30
2023-01-13T08:25:09.859Z,13.32
2023-01-13T08:27:13.252Z,13.30
2023-01-13T08:29:16.192Z,13.29
2023-01-13T08:31:18.241Z,13.29
2023-01-13T08:33:20.574Z,13.34
2023-01-13T08:35:22.709Z,13.32
2023-01-13T08:37:24.591Z,13.33
2023-01-13T08:39:26.282Z,13.37
2023-01-13T08:41:28.196Z,13.36
2023-01-13T08:43:31.207Z,13.40
2023-01-13T08:45:33.165Z,13.33
2023-01-13T08:47:35.212Z,13.29
2023-01-13T08:49:37.077Z,13.34
2023-01-13T08:51:38.805Z,13.37
2023-01-13T08:53:40.537Z,13.36
2023-01-13T08:55:42.237Z,13.37
2023-01-13T08:57:44.006Z,13.35
2023-01-13T08:59:47.224Z,13.33
2023-01-13T09:01:48.975Z,13.34
2023-01-13T09:03:50.905Z,13.34
2023-01-13T09:05:52.723Z,13.30
2023-01-13T09:07:54.410Z,13.30
2023-01-13T09:09:56.154Z,13.32
2023-01-13T09:11:57.957Z,13.39
2023-01-13T09:14:01.232Z,13.44
2023-01-13T09:16:06.237Z,13.53
2023-01-13T09:18:07.999Z,13.46
2023-01-13T09:20:11.273Z,13.46
2023-01-13T09:22:16.293Z,13.50
2023-01-13T09:24:20.220Z,13.54
2023-01-13T09:26:21.987Z,13.47
2023-01-13T09:28:23.751Z,13.54
2023-01-13T09:30:25.802Z,13.49
2023-01-13T09:32:28.906Z,13.48
2023-01-13T09:34:30.659Z,13.57
2023-01-13T09:36:32.329Z,13.60
2023-01-13T09:38:34.045Z,13.54
2023-01-13T09:40:39.672Z,13.58
2023-01-13T09:42:46.845Z,13.60
2023-01-13T09:44:53.216Z,13.60
2023-01-13T09:46:58.882Z,13.57
2023-01-13T09:49:02.696Z,13.58
2023-01-13T09:51:11.978Z,13.58
2023-01-13T09:53:20.152Z,13.57
2023-01-13T09:55:26.770Z,13.55
2023-01-13T09:57:32.620Z,13.57
2023-01-13T09:59:34.733Z,13.58
2023-01-13T10:01:44.282Z,13.65
2023-01-13T10:03:46.128Z,13.67
2023-01-13T10:05:55.646Z,13.66
2023-01-13T10:08:01.789Z,13.68
2023-01-13T10:10:09.529Z,13.70
2023-01-13T10:12:17.430Z,13.64
2023-01-13T10:14:23.857Z,13.66
2023-01-13T10:16:33.742Z,13.58
2023-01-13T10:18:49.107Z,13.56
2023-01-13T10:21:01.081Z,13.56
2023-01-13T10:23:14.500Z,13.58
2023-01-13T10:25:33.123Z,13.64
2023-01-13T10:27:37.281Z,13.64
2023-01-13T10:29:39.089Z,13.66
2023-01-13T10:31:41.276Z,13.66
2023-01-13T10:33:43.003Z,13.60
2023-01-13T10:36:15.192Z,13.61
2023-01-13T10:38:19.057Z,13.49
2023-01-13T10:40:20.927Z,13.63
2023-01-13T10:42:24.104Z,13.71
2023-01-13T10:44:26.004Z,13.77
2023-01-13T10:46:29.537Z,13.78
2023-01-13T10:48:40.827Z,13.73
2023-01-13T10:50:44.010Z,13.67
2023-01-13T10:53:01.179Z,13.73
2023-01-13T10:55:04.027Z,13.69
2023-01-13T10:57:19.806Z,13.78
2023-01-13T10:59:23.560Z,13.78
2023-01-13T11:01:27.187Z,13.79
2023-01-13T11:03:38.179Z,13.74
2023-01-13T11:05:40.115Z,13.78
2023-01-13T11:07:47.350Z,13.80
2023-01-13T11:10:05.981Z,13.84
2023-01-13T11:12:30.050Z,13.87
2023-01-13T11:14:38.694Z,13.85
2023-01-13T11:16:52.747Z,13.90
2023-01-13T11:18:59.611Z,13.86
2023-01-13T11:21:07.761Z,13.82
2023-01-13T11:23:15.708Z,13.83
2023-01-13T11:25:23.649Z,13.91
2023-01-13T11:27:37.090Z,13.99
2023-01-13T11:29:47.778Z,14.13
2023-01-13T11:31:54.305Z,14.30
2023-01-13T11:34:02.841Z,14.44
2023-01-13T11:36:10.948Z,14.60
2023-01-13T11:38:20.440Z,14.73
2023-01-13T11:40:31.098Z,14.98
2023-01-13T11:42:41.677Z,15.15
2023-01-13T11:44:50.680Z,15.33
2023-01-13T11:46:53.733Z,15.48
2023-01-13T11:48:59.391Z,15.58
2023-01-13T11:51:08.206Z,15.69
2023-01-13T11:53:28.499Z,15.77
2023-01-13T11:55:38.630Z,15.77
2023-01-13T11:57:56.269Z,15.79
2023-01-13T12:00:16.488Z,15.73
2023-01-13T12:02:33.852Z,15.53
2023-01-13T12:04:43.875Z,15.53
2023-01-13T12:06:48.403Z,15.47
2023-01-13T12:09:12.112Z,15.48
2023-01-13T12:11:25.323Z,15.44
2023-01-13T12:13:44.710Z,15.35
2023-01-13T12:16:15.192Z,15.30
2023-01-13T12:18:40.688Z,15.23
2023-01-13T12:20:51.889Z,15.14
2023-01-13T12:22:57.967Z,15.01
2023-01-13T12:25:05.926Z,15.02
2023-01-13T12:27:15.698Z,15.00
2023-01-13T12:29:19.315Z,14.90
2023-01-13T12:31:22.191Z,14.82
2023-01-13T12:33:40.044Z,14.80
2023-01-13T12:35:49.550Z,14.73
2023-01-13T12:37:58.552Z,14.65
2023-01-13T12:40:19.480Z,14.71
2023-01-13T12:42:29.984Z,14.65
2023-01-13T12:44:31.898Z,14.64
2023-01-13T12:46:35.507Z,14.64
2023-01-13T12:49:03.892Z,14.63
2023-01-13T12:51:21.573Z,14.57
2023-01-13T12:53:36.368Z,14.59
2023-01-13T12:55:38.160Z,14.58
2023-01-13T12:57:56.590Z,14.50
2023-01-13T13:00:22.300Z,14.43
2023-01-13T13:02:32.996Z,14.46
2023-01-13T13:04:43.624Z,14.47
2023-01-13T13:06:52.438Z,14.44
2023-01-13T13:09:04.039Z,14.32
2023-01-13T13:11:35.262Z,14.33
2023-01-13T13:13:44.789Z,14.38
2023-01-13T13:15:49.011Z,14.34
2023-01-13T13:18:35.233Z,14.30
2023-01-13T13:21:04.002Z,14.28
2023-01-13T13:23:27.146Z,14.30
2023-01-13T13:25:28.848Z,14.18
2023-01-13T13:27:43.560Z,14.26
2023-01-13T13:29:52.505Z,14.26
2023-01-13T13:32:12.668Z,14.20
2023-01-13T13:34:27.509Z,14.19
2023-01-13T13:36:50.365Z,14.17
2023-01-13T13:39:15.652Z,14.21
2023-01-13T13:41:22.461Z,14.25
2023-01-13T13:43:24.939Z,14.26
2023-01-13T13:45:31.188Z,14.29
2023-01-13T13:47:35.868Z,14.32
2023-01-13T13:49:40.546Z,14.33
2023-01-13T13:51:47.964Z,14.24
2023-01-13T13:53:49.789Z,14.19
2023-01-13T13:55:57.565Z,14.16
2023-01-13T13:57:59.827Z,14.14
2023-01-13T14:00:08.437Z,14.22
2023-01-13T14:02:21.113Z,14.18
2023-01-13T14:04:24.873Z,14.21
2023-01-13T14:06:26.730Z,14.17
2023-01-13T14:08:30.437Z,14.12
2023-01-13T14:10:34.960Z,14.09
2023-01-13T14:12:38.427Z,14.11
2023-01-13T14:14:43.069Z,14.04
2023-01-13T14:16:44.973Z,14.03
2023-01-13T14:18:48.652Z,14.02
2023-01-13T14:20:55.061Z,13.89
2023-01-13T14:22:59.900Z,13.80
2023-01-13T14:25:01.695Z,13.75
2023-01-13T14:27:11.044Z,13.68
2023-01-13T14:29:19.794Z,13.70
2023-01-13T14:31:24.876Z,13.77
2023-01-13T14:33:33.828Z,13.80
2023-01-13T14:35:36.822Z,13.84
2023-01-13T14:37:41.290Z,13.77
2023-01-13T14:39:42.944Z,13.75
2023-01-13T14:41:46.850Z,13.78
2023-01-13T14:43:50.530Z,13.73
2023-01-13T14:45:57.532Z,13.71
2023-01-13T14:48:01.420Z,13.70
2023-01-13T14:50:06.905Z,13.72
2023-01-13T14:52:17.099Z,13.79
2023-01-13T14:54:52.653Z,13.71
2023-01-13T14:57:12.218Z,13.76
2023-01-13T14:59:42.047Z,13.68
2023-01-13T15:01:44.042Z,13.65
2023-01-13T15:03:45.845Z,13.57
2023-01-13T15:05:48.972Z,13.53
2023-01-13T15:07:54.058Z,13.51
2023-01-13T15:09:59.510Z,13.46
2023-01-13T15:12:15.566Z,13.46
2023-01-13T15:14:23.649Z,13.49
2023-01-13T15:16:27.158Z,13.48
2023-01-13T15:18:29.069Z,13.39
2023-01-13T15:20:30.936Z,13.45
2023-01-13T15:22:34.546Z,13.45
2023-01-13T15:24:37.615Z,13.46
2023-01-13T15:26:39.333Z,13.34
2023-01-13T15:28:41.205Z,13.31
2023-01-13T15:30:43.449Z,13.34
2023-01-13T15:32:45.738Z,13.27
2023-01-13T15:34:48.633Z,13.30
2023-01-13T15:36:50.379Z,13.32
2023-01-13T15:38:52.359Z,13.39
2023-01-13T15:40:57.815Z,13.37
2023-01-13T15:42:59.567Z,13.46
2023-01-13T15:45:01.381Z,13.34
2023-01-13T15:47:06.857Z,13.40
2023-01-13T15:49:22.943Z,13.45
2023-01-13T15:51:26.756Z,13.46
2023-01-13T15:53:28.800Z,13.38
2023-01-13T15:55:37.725Z,13.32
2023-01-13T15:57:49.614Z,13.42
2023-01-13T15:59:58.460Z,13.45
2023-01-13T16:02:16.159Z,13.40
2023-01-13T16:04:22.671Z,13.42
2023-01-13T16:06:31.913Z,13.36
2023-01-13T16:08:33.843Z,13.35
2023-01-13T16:11:27.080Z,13.37
2023-01-13T16:13:30.261Z,13.38
2023-01-13T16:23:11.168Z,13.46
2023-01-13T16:25:16.443Z,13.45
2023-01-13T16:27:20.427Z,13.41
2023-01-13T16:29:22.137Z,13.31
2023-01-13T16:31:26.816Z,13.41
2023-01-13T16:33:28.419Z,13.45
2023-01-13T16:35:30.372Z,13.47
2023-01-13T16:37:31.928Z,13.46
2023-01-13T16:39:34.910Z,13.48
2023-01-13T16:41:36.567Z,13.39
2023-01-13T16:43:38.616Z,13.47
2023-01-13T16:45:41.081Z,13.52
2023-01-13T16:47:42.671Z,13.48
2023-01-13T16:49:45.112Z,13.43
2023-01-13T16:51:46.751Z,13.45
2023-01-13T16:53:49.007Z,13.51
2023-01-13T16:55:51.978Z,13.53
2023-01-13T16:57:53.628Z,13.59
2023-01-13T16:59:55.227Z,13.44
2023-01-13T17:01:56.955Z,13.47
2023-01-13T17:03:59.182Z,13.49
2023-01-13T17:06:01.958Z,13.53
2023-01-13T17:08:03.840Z,13.53
2023-01-13T17:10:06.309Z,13.53
2023-01-13T17:12:09.958Z,13.56
2023-01-13T17:14:19.282Z,13.59
2023-01-13T17:16:24.264Z,13.62
2023-01-13T17:18:25.939Z,13.67
2023-01-13T17:20:28.161Z,13.67
2023-01-13T17:22:29.733Z,13.63
2023-01-13T17:24:31.357Z,13.65
2023-01-13T17:26:35.419Z,13.60
2023-01-13T17:28:38.540Z,13.65
2023-01-13T17:30:43.513Z,13.59
2023-01-13T17:32:45.092Z,13.63
2023-01-13T17:34:47.294Z,13.64
2023-01-13T17:36:49.378Z,13.67
2023-01-13T17:38:51.047Z,13.68
2023-01-13T17:40:52.641Z,13.60
2023-01-13T17:42:54.311Z,13.56
2023-01-13T17:44:57.318Z,13.52
2023-01-13T17:46:58.900Z,13.43
2023-01-13T17:49:00.451Z,13.54
2023-01-13T17:51:01.996Z,13.59
2023-01-13T17:53:03.640Z,13.61
2023-01-13T17:55:06.034Z,13.65
2023-01-13T17:57:07.771Z,13.54
2023-01-13T17:59:11.711Z,13.55
2023-01-13T18:01:16.856Z,13.54
2023-01-13T18:03:18.830Z,13.57
2023-01-13T18:05:20.436Z,13.59
2023-01-13T18:07:22.032Z,13.59
2023-01-13T18:09:23.591Z,13.60
2023-01-13T18:11:26.009Z,13.59
2023-01-13T18:13:27.608Z,13.54
2023-01-13T18:15:29.393Z,13.52
2023-01-13T18:17:32.436Z,13.61
2023-01-13T18:19:33.981Z,13.65
2023-01-13T18:21:35.568Z,13.61
2023-01-13T18:23:37.145Z,13.56
2023-01-13T18:25:39.594Z,13.65
2023-01-13T18:27:41.219Z,13.61
2023-01-13T18:29:43.178Z,13.55
2023-01-13T18:31:45.093Z,13.57
2023-01-13T18:33:48.076Z,13.58
2023-01-13T18:35:50.090Z,13.61
2023-01-13T18:37:51.764Z,13.63
2023-01-13T18:39:53.652Z,13.61
2023-01-13T18:41:55.258Z,13.56
2023-01-13T18:43:57.036Z,13.57
2023-01-13T18:45:58.745Z,13.56
2023-01-13T18:48:02.425Z,13.56
2023-01-13T18:50:06.547Z,13.52
2023-01-13T18:52:08.140Z,13.45
2023-01-13T18:54:09.833Z,13.38
2023-01-13T18:56:12.690Z,13.41
2023-01-13T18:58:14.257Z,13.40
2023-01-13T19:00:19.367Z,13.39
2023-01-13T19:02:21.144Z,13.36
2023-01-13T19:04:22.756Z,13.38
2023-01-13T19:06:26.564Z,13.25
2023-01-13T19:08:28.377Z,13.17
2023-01-13T19:10:30.066Z,13.16
2023-01-13T19:12:32.090Z,13.04
2023-01-13T19:14:33.729Z,13.11
2023-01-13T19:16:35.496Z,13.21
2023-01-13T19:18:37.079Z,13.25
2023-01-13T19:20:38.655Z,13.21
2023-01-13T19:22:41.644Z,13.25
2023-01-13T19:24:43.454Z,13.20
2023-01-13T19:26:45.124Z,13.19
2023-01-13T19:28:46.657Z,13.08
2023-01-13T19:30:50.660Z,13.12
2023-01-13T19:32:52.314Z,13.16
2023-01-13T19:34:53.953Z,13.16
2023-01-13T19:36:55.642Z,13.10
2023-01-13T19:38:58.646Z,13.06
2023-01-13T19:41:02.184Z,13.03
2023-01-13T19:43:03.840Z,13.10
2023-01-13T19:45:06.476Z,13.10
2023-01-13T19:47:08.072Z,13.08
2023-01-13T19:49:09.777Z,13.11
2023-01-13T19:51:11.728Z,13.11
2023-01-13T19:53:16.715Z,13.15
2023-01-13T19:55:19.950Z,13.11
2023-01-13T19:57:21.588Z,13.08
2023-01-13T19:59:23.411Z,13.12
2023-01-13T20:01:25.174Z,13.09
2023-01-13T20:03:27.265Z,13.11
2023-01-13T20:05:28.909Z,13.06
2023-01-13T20:07:32.917Z,13.07
2023-01-13T20:09:34.910Z,12.94
2023-01-13T20:11:38.180Z,12.89
2023-01-13T20:13:39.803Z,12.88
2023-01-13T20:15:41.973Z,12.82
2023-01-13T20:17:43.997Z,12.80
2023-01-13T20:19:46.136Z,12.85
2023-01-13T20:21:47.800Z,12.74
2023-01-13T20:23:50.139Z,12.72
2023-01-13T20:25:51.780Z,12.67
2023-01-13T20:27:56.251Z,12.74
2023-01-13T20:29:57.839Z,12.69
2023-01-13T20:31:59.812Z,12.61
2023-01-13T20:34:01.467Z,12.63
2023-01-13T20:36:03.537Z,12.58
2023-01-13T20:38:05.292Z,12.54
2023-01-13T20:40:08.374Z,12.57
2023-01-13T20:42:10.210Z,12.54
2023-01-13T20:44:14.102Z,12.57
2023-01-13T20:46:15.888Z,12.44
2023-01-13T20:48:17.712Z,12.48
2023-01-13T20:50:19.567Z,12.53
2023-01-13T20:52:21.237Z,12.58
2023-01-13T20:54:23.300Z,12.62
2023-01-13T20:56:25.169Z,12.55
2023-01-13T20:58:26.855Z,12.60
2023-01-13T21:00:29.862Z,12.50
2023-01-13T21:02:31.571Z,12.44
2023-01-13T21:04:33.475Z,12.47
2023-01-13T21:06:35.400Z,12.56
2023-01-13T21:08:36.974Z,12.47
2023-01-13T21:10:38.648Z,12.34
2023-01-13T21:12:40.230Z,12.41
2023-01-13T21:14:41.833Z,12.44
2023-01-13T21:16:44.799Z,12.49
2023-01-13T21:18:46.535Z,12.45
2023-01-13T21:20:48.235Z,12.49
2023-01-13T21:22:50.085Z,12.52
2023-01-13T21:24:51.814Z,12.45
2023-01-13T21:26:53.405Z,12.48
2023-01-13T21:29:05.288Z,12.53
2023-01-13T21:31:09.211Z,12.56
2023-01-13T21:33:14.114Z,12.59
2023-01-13T21:35:16.053Z,12.52
2023-01-13T21:37:17.834Z,12.50
2023-01-13T21:39:19.378Z,12.53
2023-01-13T21:41:21.260Z,12.55
2023-01-13T21:43:22.831Z,12.52
2023-01-13T21:45:24.448Z,12.53
2023-01-13T21:47:26.209Z,12.59
2023-01-13T21:49:29.270Z,12.55
2023-01-13T21:51:31.493Z,12.54
2023-01-13T21:53:33.334Z,12.52
2023-01-13T21:55:35.911Z,12.52
2023-01-13T21:57:37.683Z,12.53
2023-01-13T21:59:39.324Z,12.55
2023-01-13T22:02:23.431Z,12.53
2023-01-13T22:04:02.519Z,12.52
2023-01-13T22:06:06.076Z,12.48
2023-01-13T22:08:07.695Z,12.47
2023-01-13T22:10:11.106Z,12.44
2023-01-13T22:12:12.875Z,12.47
2023-01-13T22:14:14.450Z,12.50
2023-01-13T22:16:16.154Z,12.46
2023-01-13T22:18:17.808Z,12.49
2023-01-13T22:20:20.282Z,12.46
2023-01-13T22:22:23.945Z,12.47
2023-01-13T22:24:25.541Z,12.47
2023-01-13T22:26:27.466Z,12.52
2023-01-13T22:28:29.187Z,12.54
2023-01-13T22:30:30.771Z,12.51
2023-01-13T22:32:35.901Z,12.42
2023-01-13T22:34:37.682Z,12.40
2023-01-13T22:36:39.258Z,12.36
2023-01-13T22:38:42.210Z,12.40
2023-01-13T22:40:43.914Z,12.39
2023-01-13T22:42:45.479Z,12.43
2023-01-13T22:44:47.075Z,12.38
2023-01-13T22:46:48.862Z,12.27
2023-01-13T22:48:50.511Z,12.27
2023-01-13T22:50:52.200Z,12.31
2023-01-13T22:52:53.733Z,12.33
2023-01-13T22:54:56.653Z,12.31
2023-01-13T22:56:58.241Z,12.37
2023-01-13T22:59:01.820Z,12.38
2023-01-13T23:01:10.741Z,12.37
2023-01-13T23:03:12.391Z,12.37
2023-01-13T23:05:14.176Z,12.40
2023-01-13T23:07:15.719Z,12.43
2023-01-13T23:09:17.266Z,12.48
2023-01-13T23:11:22.520Z,12.49
2023-01-13T23:13:24.110Z,12.49
2023-01-13T23:15:25.629Z,12.50
2023-01-13T23:17:27.252Z,12.39
2023-01-13T23:19:28.776Z,12.44
2023-01-13T23:21:33.026Z,12.42
2023-01-13T23:23:34.724Z,12.38
2023-01-13T23:25:36.377Z,12.33
2023-01-13T23:27:39.685Z,12.41
2023-01-13T23:29:41.420Z,12.39
2023-01-13T23:31:42.986Z,12.38
2023-01-13T23:33:45.303Z,12.35
2023-01-13T23:35:56.882Z,12.24
2023-01-13T23:37:58.456Z,12.28
2023-01-13T23:39:59.979Z,12.27
2023-01-13T23:42:01.707Z,12.33
2023-01-13T23:44:04.897Z,12.38
2023-01-13T23:46:09.075Z,12.27
2023-01-13T23:48:10.919Z,12.18
2023-01-13T23:50:12.527Z,12.19
2023-01-13T23:52:14.141Z,12.24
2023-01-13T23:54:15.663Z,12.13
2023-01-13T23:56:19.196Z,12.19
2023-01-13T23:58:20.856Z,12.21
